Notice: iconv(): Detected an illegal character in input string in /home/meteolat/www/weather28/wsLangFunctions.php on line 115

Notice: iconv(): Detected an illegal character in input string in /home/meteolat/www/weather28/wsLangFunctions.php on line 115
Météorologique de l'aéroport - Météo La Turballe
Pas de vigilance météorologique particulière.    Il n'y a aucun avertissement

Visitez nos sites météorologiques autres:

Template documentation
and downloads

And another site



Rapports METAR proximité

   
EHVK - Volkel Rnlafb, Netherlands
Distance: SO 18 km
Mise à jour: 28-10-2021 09:25
Claires  
Claires  
   Vent: varie 3.7 km/h
Vent: varie 3.7 km/h
Température: 8°C
Point de rosée: 7°C
Humidité: 93%
Baromètre: 1017 hPa
Nuageux: Claires
visibilité: More than 10 km
Détails des nuages: Claires
EHVK 280725Z AUTO VRB02KT 9999 NCD 08/07 Q1017 BLU NOSIG
EDLV - Niederrhein, Germany
Distance: SE 25 km
Mise à jour: 28-10-2021 09:20
Brouillard, Nuageux  
Brouillard, Nuageux  
   Vent: SE 14.8 km/h
Vent: SE 14.8 km/h
Température: 7°C
éolien: 4°C
Point de rosée: 7°C
Humidité: 100%
Baromètre: 1018 hPa
Nuageux: Nuageux
visibilité: 1 km
Détails des nuages: Nuageux 100 ft
EDLV 280720Z 14008KT 0450 R27/0600N FG BKN001 07/07 Q1018
EHDL - Deelen Rnlafb, Netherlands
Distance: N 35 km
Mise à jour: 28-10-2021 09:25
Brouillard, Claires  
Brouillard, Claires  
   Vent: SE 7.4 km/h
Vent: SE 7.4 km/h
Température: 8°C
éolien: 7°C
Point de rosée: 7°C
Humidité: 93%
Baromètre: 1017 hPa
Nuageux: Claires
visibilité: 9 km
Détails des nuages: Claires
EHDL 280725Z AUTO 14004KT 080V200 9000 BR NCD 08/07 Q1017 BLU
EHEH - Eindhoven Rnlafb, Netherlands
Distance: SO 48 km
Mise à jour: 28-10-2021 09:25
Brouillard, Claires  
Brouillard, Claires  
   Vent: SE 9.3 km/h
Vent: SE 9.3 km/h
Température: 8°C
éolien: 7°C
Point de rosée: 7°C
Humidité: 93%
Baromètre: 1017 hPa
Nuageux: Claires
visibilité: 9 km
Détails des nuages: Claires
EHEH 280725Z AUTO 14005KT 110V260 9000 BR NCD 08/07 Q1017 BLU NOSIG
EHGR - Gilze-Rijen Rnla, Netherlands
Distance: OSO 70 km
Mise à jour: 28-10-2021 09:37
Brouillard, Claires  
Brouillard, Claires  
   Vent: SSE 7.4 km/h
Vent: SSE 7.4 km/h
Température: 9°C
éolien: 8°C
Point de rosée: 8°C
Humidité: 94%
Baromètre: 1017 hPa
Nuageux: Claires
visibilité: 8 km
Détails des nuages: Claires
EHGR 280737Z AUTO 16004KT 130V190 8000 BR NCD 09/08 Q1017 BLU NOSIG
EBBL - Kleine-Brogel(Ba, Belgium
Distance: SSO 71 km
Mise à jour: 28-10-2021 09:25
Peu de nuages  
Peu de nuages  
   Vent: varie 3.7 km/h
Vent: varie 3.7 km/h
Température: 9°C
Point de rosée: 8°C
Humidité: 94%
Baromètre: 1017 hPa
Nuageux: Peu de nuages
visibilité: More than 10 km
Détails des nuages: Peu de nuages 28000 ft
EBBL 280725Z VRB02KT 9999 FEW280 09/08 Q1017 BLU BLU

Script développé par  Saratoga-weather.org Adapté pour le modèle par  Weerstation Leuven

Équipement que nous utilisons:

Station de Météo
Davis VUE

Davis VUE